Terminal Aerodrome Forecast
Issued by NWS Mt. Holly, NJ

Home | Current Version | Previous Version | Text Only | Print | Product List | Glossary On
Versions: 1 2 3 4 5 6 7 8 9 10 11 12 13 14 15 16 17 18 19
000
FTUS41 KPHI 161700
TAFACY
TAF
KACY 161725Z 1618/1718 35011KT P6SM SCT050
      TEMPO 1619/1623 BKN050
     FM162300 32004KT P6SM SKC
     FM171200 03007KT P6SM SCT035=

USA.gov is the U.S. government's official web portal to all federal, state and local government web resources and services.